sensor_id;sensor_type;location;lat;lon;timestamp;P1;durP1;ratioP1;P2;durP2;ratioP2
5951;SDS011;3001;42.622;23.194;2022-11-11T00:00:32;23.27;;;15.63;;
5951;SDS011;3001;42.622;23.194;2022-11-11T00:03:00;21.77;;;15.17;;
5951;SDS011;3001;42.622;23.194;2022-11-11T00:05:27;23.27;;;16.40;;
5951;SDS011;3001;42.622;23.194;2022-11-11T00:07:54;26.07;;;15.27;;
5951;SDS011;3001;42.622;23.194;2022-11-11T00:10:23;19.97;;;14.40;;
5951;SDS011;3001;42.622;23.194;2022-11-11T00:12:50;24.57;;;15.17;;
5951;SDS011;3001;42.622;23.194;2022-11-11T00:15:17;23.37;;;16.03;;
5951;SDS011;3001;42.622;23.194;2022-11-11T00:17:45;25.67;;;14.97;;
5951;SDS011;3001;42.622;23.194;2022-11-11T00:20:29;22.33;;;15.40;;
5951;SDS011;3001;42.622;23.194;2022-11-11T00:23:14;25.07;;;15.53;;
5951;SDS011;3001;42.622;23.194;2022-11-11T00:26:04;28.50;;;16.67;;
5951;SDS011;3001;42.622;23.194;2022-11-11T00:28:30;22.63;;;15.17;;
5951;SDS011;3001;42.622;23.194;2022-11-11T00:31:01;20.00;;;14.73;;
5951;SDS011;3001;42.622;23.194;2022-11-11T00:33:30;24.13;;;15.97;;
5951;SDS011;3001;42.622;23.194;2022-11-11T00:35:57;28.93;;;16.70;;
5951;SDS011;3001;42.622;23.194;2022-11-11T00:38:23;23.30;;;14.63;;
5951;SDS011;3001;42.622;23.194;2022-11-11T00:41:08;21.47;;;15.07;;
5951;SDS011;3001;42.622;23.194;2022-11-11T00:43:34;21.40;;;15.33;;
5951;SDS011;3001;42.622;23.194;2022-11-11T00:46:01;21.27;;;14.83;;
5951;SDS011;3001;42.622;23.194;2022-11-11T00:48:48;27.77;;;16.23;;
5951;SDS011;3001;42.622;23.194;2022-11-11T00:51:32;22.97;;;16.33;;
5951;SDS011;3001;42.622;23.194;2022-11-11T00:53:58;21.70;;;14.97;;
5951;SDS011;3001;42.622;23.194;2022-11-11T00:56:25;21.10;;;15.37;;
5951;SDS011;3001;42.622;23.194;2022-11-11T00:58:52;23.20;;;15.43;;
5951;SDS011;3001;42.622;23.194;2022-11-11T01:01:19;21.40;;;14.57;;
5951;SDS011;3001;42.622;23.194;2022-11-11T01:03:47;19.13;;;13.97;;
5951;SDS011;3001;42.622;23.194;2022-11-11T01:06:14;21.17;;;15.20;;
5951;SDS011;3001;42.622;23.194;2022-11-11T01:08:41;21.60;;;14.53;;
5951;SDS011;3001;42.622;23.194;2022-11-11T01:11:11;26.00;;;14.73;;
5951;SDS011;3001;42.622;23.194;2022-11-11T01:13:39;26.20;;;15.67;;
5951;SDS011;3001;42.622;23.194;2022-11-11T01:16:08;28.43;;;16.23;;
5951;SDS011;3001;42.622;23.194;2022-11-11T01:18:37;22.50;;;14.80;;
5951;SDS011;3001;42.622;23.194;2022-11-11T01:21:06;25.73;;;15.47;;
5951;SDS011;3001;42.622;23.194;2022-11-11T01:23:34;30.97;;;16.60;;
5951;SDS011;3001;42.622;23.194;2022-11-11T01:26:03;23.97;;;14.73;;
5951;SDS011;3001;42.622;23.194;2022-11-11T01:28:31;24.30;;;15.57;;
5951;SDS011;3001;42.622;23.194;2022-11-11T01:31:02;26.47;;;15.77;;
5951;SDS011;3001;42.622;23.194;2022-11-11T01:33:30;26.97;;;17.40;;
5951;SDS011;3001;42.622;23.194;2022-11-11T01:36:01;28.10;;;15.80;;
5951;SDS011;3001;42.622;23.194;2022-11-11T01:38:34;23.17;;;15.97;;
5951;SDS011;3001;42.622;23.194;2022-11-11T01:41:02;24.03;;;17.00;;
5951;SDS011;3001;42.622;23.194;2022-11-11T01:43:51;27.67;;;16.23;;
5951;SDS011;3001;42.622;23.194;2022-11-11T01:46:20;28.30;;;18.20;;
5951;SDS011;3001;42.622;23.194;2022-11-11T01:48:53;26.80;;;17.40;;
5951;SDS011;3001;42.622;23.194;2022-11-11T01:51:43;24.33;;;16.63;;
5951;SDS011;3001;42.622;23.194;2022-11-11T01:54:16;25.17;;;16.27;;
5951;SDS011;3001;42.622;23.194;2022-11-11T01:56:47;21.33;;;15.23;;
5951;SDS011;3001;42.622;23.194;2022-11-11T01:59:19;23.47;;;16.47;;
5951;SDS011;3001;42.622;23.194;2022-11-11T02:01:46;22.30;;;14.77;;
5951;SDS011;3001;42.622;23.194;2022-11-11T02:04:14;25.33;;;16.00;;
5951;SDS011;3001;42.622;23.194;2022-11-11T02:07:02;26.30;;;17.03;;
5951;SDS011;3001;42.622;23.194;2022-11-11T02:09:32;24.67;;;17.63;;
5951;SDS011;3001;42.622;23.194;2022-11-11T02:12:02;29.97;;;17.37;;
5951;SDS011;3001;42.622;23.194;2022-11-11T02:14:51;24.67;;;16.60;;
5951;SDS011;3001;42.622;23.194;2022-11-11T02:17:20;24.23;;;15.90;;
5951;SDS011;3001;42.622;23.194;2022-11-11T02:19:49;25.10;;;16.30;;
5951;SDS011;3001;42.622;23.194;2022-11-11T02:22:23;27.40;;;17.80;;
5951;SDS011;3001;42.622;23.194;2022-11-11T02:24:58;36.23;;;19.43;;
5951;SDS011;3001;42.622;23.194;2022-11-11T02:27:28;32.73;;;20.30;;
5951;SDS011;3001;42.622;23.194;2022-11-11T02:29:57;36.40;;;20.17;;
5951;SDS011;3001;42.622;23.194;2022-11-11T02:32:27;34.37;;;19.40;;
5951;SDS011;3001;42.622;23.194;2022-11-11T02:34:53;34.37;;;19.07;;
5951;SDS011;3001;42.622;23.194;2022-11-11T02:37:21;25.23;;;16.43;;
5951;SDS011;3001;42.622;23.194;2022-11-11T02:39:49;27.53;;;17.10;;
5951;SDS011;3001;42.622;23.194;2022-11-11T02:42:19;24.07;;;16.80;;
5951;SDS011;3001;42.622;23.194;2022-11-11T02:44:47;29.17;;;17.53;;
5951;SDS011;3001;42.622;23.194;2022-11-11T02:47:14;29.10;;;17.17;;
5951;SDS011;3001;42.622;23.194;2022-11-11T02:49:41;23.57;;;16.27;;
5951;SDS011;3001;42.622;23.194;2022-11-11T02:52:08;40.60;;;21.40;;
5951;SDS011;3001;42.622;23.194;2022-11-11T02:54:34;38.73;;;19.70;;
5951;SDS011;3001;42.622;23.194;2022-11-11T02:57:01;23.30;;;15.73;;
5951;SDS011;3001;42.622;23.194;2022-11-11T02:59:37;27.43;;;16.93;;
5951;SDS011;3001;42.622;23.194;2022-11-11T03:02:05;22.80;;;15.57;;
5951;SDS011;3001;42.622;23.194;2022-11-11T03:04:33;19.60;;;15.10;;
5951;SDS011;3001;42.622;23.194;2022-11-11T03:07:01;19.47;;;14.33;;
5951;SDS011;3001;42.622;23.194;2022-11-11T03:09:28;21.20;;;15.83;;
5951;SDS011;3001;42.622;23.194;2022-11-11T03:11:55;20.77;;;15.00;;
5951;SDS011;3001;42.622;23.194;2022-11-11T03:14:22;22.10;;;14.83;;
5951;SDS011;3001;42.622;23.194;2022-11-11T03:16:50;18.57;;;13.80;;
5951;SDS011;3001;42.622;23.194;2022-11-11T03:19:35;19.87;;;15.77;;
5951;SDS011;3001;42.622;23.194;2022-11-11T03:22:02;19.10;;;15.23;;
5951;SDS011;3001;42.622;23.194;2022-11-11T03:24:28;21.63;;;15.50;;
5951;SDS011;3001;42.622;23.194;2022-11-11T03:27:09;22.33;;;15.10;;
5951;SDS011;3001;42.622;23.194;2022-11-11T03:29:35;21.90;;;15.53;;
5951;SDS011;3001;42.622;23.194;2022-11-11T03:32:03;20.53;;;14.80;;
5951;SDS011;3001;42.622;23.194;2022-11-11T03:34:30;18.77;;;14.70;;
5951;SDS011;3001;42.622;23.194;2022-11-11T03:36:57;21.37;;;16.50;;
5951;SDS011;3001;42.622;23.194;2022-11-11T03:39:41;28.07;;;17.70;;
5951;SDS011;3001;42.622;23.194;2022-11-11T03:42:08;20.63;;;15.63;;
5951;SDS011;3001;42.622;23.194;2022-11-11T03:44:35;23.00;;;15.97;;
5951;SDS011;3001;42.622;23.194;2022-11-11T03:47:01;24.60;;;15.63;;
5951;SDS011;3001;42.622;23.194;2022-11-11T03:49:29;23.47;;;16.00;;
5951;SDS011;3001;42.622;23.194;2022-11-11T03:51:56;22.13;;;16.13;;
5951;SDS011;3001;42.622;23.194;2022-11-11T03:54:23;22.23;;;17.00;;
5951;SDS011;3001;42.622;23.194;2022-11-11T03:56:50;25.80;;;18.23;;
5951;SDS011;3001;42.622;23.194;2022-11-11T03:59:16;26.90;;;17.87;;
5951;SDS011;3001;42.622;23.194;2022-11-11T04:01:43;23.87;;;17.10;;
5951;SDS011;3001;42.622;23.194;2022-11-11T04:04:27;20.60;;;15.33;;
5951;SDS011;3001;42.622;23.194;2022-11-11T04:07:12;18.63;;;14.27;;
5951;SDS011;3001;42.622;23.194;2022-11-11T04:09:56;21.07;;;15.27;;
5951;SDS011;3001;42.622;23.194;2022-11-11T04:12:40;22.70;;;14.23;;
5951;SDS011;3001;42.622;23.194;2022-11-11T04:15:22;22.47;;;16.17;;
5951;SDS011;3001;42.622;23.194;2022-11-11T04:18:06;20.97;;;16.53;;
5951;SDS011;3001;42.622;23.194;2022-11-11T04:20:33;22.33;;;16.20;;
5951;SDS011;3001;42.622;23.194;2022-11-11T04:23:18;19.33;;;15.17;;
5951;SDS011;3001;42.622;23.194;2022-11-11T04:25:45;21.33;;;14.77;;
5951;SDS011;3001;42.622;23.194;2022-11-11T04:28:14;19.93;;;14.93;;
5951;SDS011;3001;42.622;23.194;2022-11-11T04:30:58;19.97;;;15.50;;
5951;SDS011;3001;42.622;23.194;2022-11-11T04:33:25;19.13;;;15.40;;
5951;SDS011;3001;42.622;23.194;2022-11-11T04:35:50;23.63;;;16.77;;
5951;SDS011;3001;42.622;23.194;2022-11-11T04:38:18;24.70;;;17.90;;
5951;SDS011;3001;42.622;23.194;2022-11-11T04:41:03;19.53;;;14.93;;
5951;SDS011;3001;42.622;23.194;2022-11-11T04:43:30;19.57;;;15.40;;
5951;SDS011;3001;42.622;23.194;2022-11-11T04:46:17;19.80;;;15.03;;
5951;SDS011;3001;42.622;23.194;2022-11-11T04:48:43;18.17;;;13.03;;
5951;SDS011;3001;42.622;23.194;2022-11-11T04:51:10;15.50;;;13.20;;
5951;SDS011;3001;42.622;23.194;2022-11-11T04:53:38;20.57;;;15.97;;
5951;SDS011;3001;42.622;23.194;2022-11-11T04:56:05;27.97;;;20.57;;
5951;SDS011;3001;42.622;23.194;2022-11-11T04:58:51;21.33;;;17.83;;
5951;SDS011;3001;42.622;23.194;2022-11-11T05:01:38;22.87;;;17.50;;
5951;SDS011;3001;42.622;23.194;2022-11-11T05:04:36;24.93;;;18.53;;
5951;SDS011;3001;42.622;23.194;2022-11-11T05:07:03;17.20;;;14.13;;
5951;SDS011;3001;42.622;23.194;2022-11-11T05:09:48;18.40;;;13.30;;
5951;SDS011;3001;42.622;23.194;2022-11-11T05:12:15;14.00;;;12.50;;
5951;SDS011;3001;42.622;23.194;2022-11-11T05:14:42;14.20;;;12.17;;
5951;SDS011;3001;42.622;23.194;2022-11-11T05:17:26;22.93;;;14.77;;
5951;SDS011;3001;42.622;23.194;2022-11-11T05:20:10;20.70;;;15.30;;
5951;SDS011;3001;42.622;23.194;2022-11-11T05:22:54;25.13;;;15.97;;
5951;SDS011;3001;42.622;23.194;2022-11-11T05:25:22;19.43;;;13.87;;
5951;SDS011;3001;42.622;23.194;2022-11-11T05:27:51;21.90;;;13.87;;
5951;SDS011;3001;42.622;23.194;2022-11-11T05:30:18;21.17;;;16.57;;
5951;SDS011;3001;42.622;23.194;2022-11-11T05:32:47;18.93;;;14.30;;
5951;SDS011;3001;42.622;23.194;2022-11-11T05:35:15;18.00;;;14.50;;
5951;SDS011;3001;42.622;23.194;2022-11-11T05:37:42;17.20;;;14.50;;
5951;SDS011;3001;42.622;23.194;2022-11-11T05:40:31;16.97;;;13.83;;
5951;SDS011;3001;42.622;23.194;2022-11-11T05:42:57;18.77;;;14.53;;
5951;SDS011;3001;42.622;23.194;2022-11-11T05:45:24;20.43;;;15.73;;
5951;SDS011;3001;42.622;23.194;2022-11-11T05:47:51;22.80;;;16.40;;
5951;SDS011;3001;42.622;23.194;2022-11-11T05:50:18;23.97;;;15.70;;
5951;SDS011;3001;42.622;23.194;2022-11-11T05:52:46;31.03;;;21.80;;
5951;SDS011;3001;42.622;23.194;2022-11-11T05:55:14;31.97;;;21.60;;
5951;SDS011;3001;42.622;23.194;2022-11-11T05:57:43;31.20;;;20.67;;
5951;SDS011;3001;42.622;23.194;2022-11-11T06:00:10;31.37;;;19.13;;
5951;SDS011;3001;42.622;23.194;2022-11-11T06:02:37;19.77;;;15.70;;
5951;SDS011;3001;42.622;23.194;2022-11-11T06:05:04;21.10;;;15.60;;
5951;SDS011;3001;42.622;23.194;2022-11-11T06:07:32;24.30;;;17.93;;
5951;SDS011;3001;42.622;23.194;2022-11-11T06:09:59;24.57;;;17.67;;
5951;SDS011;3001;42.622;23.194;2022-11-11T06:12:40;31.63;;;18.67;;
5951;SDS011;3001;42.622;23.194;2022-11-11T06:15:22;27.60;;;17.37;;
5951;SDS011;3001;42.622;23.194;2022-11-11T06:17:49;28.37;;;18.90;;
5951;SDS011;3001;42.622;23.194;2022-11-11T06:20:16;35.83;;;20.87;;
5951;SDS011;3001;42.622;23.194;2022-11-11T06:22:43;29.40;;;17.67;;
5951;SDS011;3001;42.622;23.194;2022-11-11T06:25:21;25.13;;;17.33;;
5951;SDS011;3001;42.622;23.194;2022-11-11T06:28:07;16.03;;;12.87;;
5951;SDS011;3001;42.622;23.194;2022-11-11T06:30:34;14.67;;;12.63;;
5951;SDS011;3001;42.622;23.194;2022-11-11T06:33:01;16.63;;;12.63;;
5951;SDS011;3001;42.622;23.194;2022-11-11T06:35:28;18.23;;;12.67;;
5951;SDS011;3001;42.622;23.194;2022-11-11T06:37:54;15.43;;;12.20;;
5951;SDS011;3001;42.622;23.194;2022-11-11T06:40:21;13.23;;;11.63;;
5951;SDS011;3001;42.622;23.194;2022-11-11T06:42:49;17.00;;;12.73;;
5951;SDS011;3001;42.622;23.194;2022-11-11T06:45:17;15.30;;;12.83;;
5951;SDS011;3001;42.622;23.194;2022-11-11T06:47:43;14.47;;;12.33;;
5951;SDS011;3001;42.622;23.194;2022-11-11T06:50:10;11.80;;;10.60;;
5951;SDS011;3001;42.622;23.194;2022-11-11T06:52:37;15.63;;;12.47;;
5951;SDS011;3001;42.622;23.194;2022-11-11T06:55:04;12.90;;;11.63;;
5951;SDS011;3001;42.622;23.194;2022-11-11T06:57:31;16.00;;;12.90;;
5951;SDS011;3001;42.622;23.194;2022-11-11T06:59:58;14.40;;;12.20;;
5951;SDS011;3001;42.622;23.194;2022-11-11T07:02:26;13.57;;;12.13;;
5951;SDS011;3001;42.622;23.194;2022-11-11T07:04:53;15.03;;;12.67;;
5951;SDS011;3001;42.622;23.194;2022-11-11T07:07:19;18.87;;;13.43;;
5951;SDS011;3001;42.622;23.194;2022-11-11T07:09:46;16.33;;;13.97;;
5951;SDS011;3001;42.622;23.194;2022-11-11T07:12:13;16.97;;;13.20;;
5951;SDS011;3001;42.622;23.194;2022-11-11T07:14:40;14.90;;;12.23;;
5951;SDS011;3001;42.622;23.194;2022-11-11T07:17:08;15.40;;;13.37;;
5951;SDS011;3001;42.622;23.194;2022-11-11T07:19:36;18.43;;;13.57;;
5951;SDS011;3001;42.622;23.194;2022-11-11T07:22:03;16.53;;;13.40;;
5951;SDS011;3001;42.622;23.194;2022-11-11T07:24:29;17.03;;;13.77;;
5951;SDS011;3001;42.622;23.194;2022-11-11T07:26:56;17.40;;;14.73;;
5951;SDS011;3001;42.622;23.194;2022-11-11T07:29:23;20.07;;;14.50;;
5951;SDS011;3001;42.622;23.194;2022-11-11T07:31:50;17.63;;;14.03;;
5951;SDS011;3001;42.622;23.194;2022-11-11T07:34:17;16.60;;;14.00;;
5951;SDS011;3001;42.622;23.194;2022-11-11T07:36:45;17.90;;;14.23;;
5951;SDS011;3001;42.622;23.194;2022-11-11T07:39:11;22.00;;;14.80;;
5951;SDS011;3001;42.622;23.194;2022-11-11T07:41:38;20.27;;;14.93;;
5951;SDS011;3001;42.622;23.194;2022-11-11T07:44:05;18.73;;;14.70;;
5951;SDS011;3001;42.622;23.194;2022-11-11T07:46:32;21.10;;;15.03;;
5951;SDS011;3001;42.622;23.194;2022-11-11T07:48:58;22.27;;;15.57;;
5951;SDS011;3001;42.622;23.194;2022-11-11T07:51:25;19.83;;;14.77;;
5951;SDS011;3001;42.622;23.194;2022-11-11T07:53:53;17.77;;;14.20;;
5951;SDS011;3001;42.622;23.194;2022-11-11T07:56:20;18.90;;;13.73;;
5951;SDS011;3001;42.622;23.194;2022-11-11T07:58:46;16.90;;;13.33;;
5951;SDS011;3001;42.622;23.194;2022-11-11T08:01:13;15.50;;;12.13;;
5951;SDS011;3001;42.622;23.194;2022-11-11T08:03:40;17.10;;;13.47;;
5951;SDS011;3001;42.622;23.194;2022-11-11T08:06:14;19.97;;;13.63;;
5951;SDS011;3001;42.622;23.194;2022-11-11T08:08:42;17.40;;;12.30;;
5951;SDS011;3001;42.622;23.194;2022-11-11T08:11:10;13.30;;;11.90;;
5951;SDS011;3001;42.622;23.194;2022-11-11T08:13:37;18.57;;;13.17;;
5951;SDS011;3001;42.622;23.194;2022-11-11T08:16:05;13.27;;;11.80;;
5951;SDS011;3001;42.622;23.194;2022-11-11T08:18:32;14.63;;;12.43;;
5951;SDS011;3001;42.622;23.194;2022-11-11T08:20:59;13.93;;;12.20;;
5951;SDS011;3001;42.622;23.194;2022-11-11T08:23:27;16.00;;;12.80;;
5951;SDS011;3001;42.622;23.194;2022-11-11T08:25:58;17.27;;;13.30;;
5951;SDS011;3001;42.622;23.194;2022-11-11T08:28:26;13.67;;;11.63;;
5951;SDS011;3001;42.622;23.194;2022-11-11T08:30:54;13.67;;;12.27;;
5951;SDS011;3001;42.622;23.194;2022-11-11T08:33:23;15.40;;;12.47;;
5951;SDS011;3001;42.622;23.194;2022-11-11T08:35:49;13.57;;;11.70;;
5951;SDS011;3001;42.622;23.194;2022-11-11T08:38:18;13.47;;;11.10;;
5951;SDS011;3001;42.622;23.194;2022-11-11T08:40:45;15.60;;;11.30;;
5951;SDS011;3001;42.622;23.194;2022-11-11T08:43:12;16.83;;;12.27;;
5951;SDS011;3001;42.622;23.194;2022-11-11T08:45:40;14.17;;;12.03;;
5951;SDS011;3001;42.622;23.194;2022-11-11T08:48:07;12.70;;;11.20;;
5951;SDS011;3001;42.622;23.194;2022-11-11T08:50:35;12.00;;;10.80;;
5951;SDS011;3001;42.622;23.194;2022-11-11T08:53:02;11.70;;;10.03;;
5951;SDS011;3001;42.622;23.194;2022-11-11T08:55:29;14.63;;;11.53;;
5951;SDS011;3001;42.622;23.194;2022-11-11T08:57:56;11.43;;;10.20;;
5951;SDS011;3001;42.622;23.194;2022-11-11T09:00:24;11.80;;;10.27;;
5951;SDS011;3001;42.622;23.194;2022-11-11T09:02:52;11.03;;;9.93;;
5951;SDS011;3001;42.622;23.194;2022-11-11T09:05:19;11.23;;;10.13;;
5951;SDS011;3001;42.622;23.194;2022-11-11T09:07:46;12.97;;;10.43;;
5951;SDS011;3001;42.622;23.194;2022-11-11T09:10:13;11.03;;;9.93;;
5951;SDS011;3001;42.622;23.194;2022-11-11T09:12:40;11.90;;;10.70;;
5951;SDS011;3001;42.622;23.194;2022-11-11T09:15:07;15.97;;;10.87;;
5951;SDS011;3001;42.622;23.194;2022-11-11T09:17:34;11.33;;;10.30;;
5951;SDS011;3001;42.622;23.194;2022-11-11T09:20:02;13.53;;;10.27;;
5951;SDS011;3001;42.622;23.194;2022-11-11T09:22:29;11.03;;;9.63;;
5951;SDS011;3001;42.622;23.194;2022-11-11T09:24:56;9.30;;;8.50;;
5951;SDS011;3001;42.622;23.194;2022-11-11T09:27:23;11.07;;;9.83;;
5951;SDS011;3001;42.622;23.194;2022-11-11T09:29:49;10.53;;;9.20;;
5951;SDS011;3001;42.622;23.194;2022-11-11T09:32:16;10.27;;;8.73;;
5951;SDS011;3001;42.622;23.194;2022-11-11T09:34:43;11.77;;;7.63;;
5951;SDS011;3001;42.622;23.194;2022-11-11T09:37:11;7.53;;;6.93;;
5951;SDS011;3001;42.622;23.194;2022-11-11T09:39:38;8.97;;;8.13;;
5951;SDS011;3001;42.622;23.194;2022-11-11T09:42:06;7.90;;;7.27;;
5951;SDS011;3001;42.622;23.194;2022-11-11T09:44:49;12.77;;;8.20;;
5951;SDS011;3001;42.622;23.194;2022-11-11T09:47:33;11.83;;;8.77;;
5951;SDS011;3001;42.622;23.194;2022-11-11T09:50:08;9.87;;;8.53;;
5951;SDS011;3001;42.622;23.194;2022-11-11T09:52:39;10.90;;;9.07;;
5951;SDS011;3001;42.622;23.194;2022-11-11T09:55:12;8.60;;;7.87;;
5951;SDS011;3001;42.622;23.194;2022-11-11T09:57:43;11.60;;;9.60;;
5951;SDS011;3001;42.622;23.194;2022-11-11T10:00:15;12.07;;;9.60;;
5951;SDS011;3001;42.622;23.194;2022-11-11T10:02:46;11.10;;;9.70;;
5951;SDS011;3001;42.622;23.194;2022-11-11T10:05:17;10.40;;;9.20;;
5951;SDS011;3001;42.622;23.194;2022-11-11T10:07:50;10.97;;;9.90;;
5951;SDS011;3001;42.622;23.194;2022-11-11T10:10:23;10.40;;;9.50;;
5951;SDS011;3001;42.622;23.194;2022-11-11T10:12:56;10.73;;;9.73;;
5951;SDS011;3001;42.622;23.194;2022-11-11T10:15:23;10.40;;;9.37;;
5951;SDS011;3001;42.622;23.194;2022-11-11T10:18:02;11.80;;;10.13;;
5951;SDS011;3001;42.622;23.194;2022-11-11T10:20:41;9.90;;;8.77;;
5951;SDS011;3001;42.622;23.194;2022-11-11T10:23:15;9.97;;;9.07;;
5951;SDS011;3001;42.622;23.194;2022-11-11T10:25:45;11.40;;;10.30;;
5951;SDS011;3001;42.622;23.194;2022-11-11T10:28:19;11.40;;;10.00;;
5951;SDS011;3001;42.622;23.194;2022-11-11T10:30:47;10.80;;;9.67;;
5951;SDS011;3001;42.622;23.194;2022-11-11T10:33:17;11.07;;;10.03;;
5951;SDS011;3001;42.622;23.194;2022-11-11T10:35:47;11.13;;;10.07;;
5951;SDS011;3001;42.622;23.194;2022-11-11T10:38:19;11.00;;;9.73;;
5951;SDS011;3001;42.622;23.194;2022-11-11T10:40:52;11.30;;;10.20;;
5951;SDS011;3001;42.622;23.194;2022-11-11T10:43:20;11.27;;;10.10;;
5951;SDS011;3001;42.622;23.194;2022-11-11T10:45:50;9.23;;;8.50;;
5951;SDS011;3001;42.622;23.194;2022-11-11T10:48:30;10.17;;;9.17;;
5951;SDS011;3001;42.622;23.194;2022-11-11T10:51:05;8.63;;;8.03;;
5951;SDS011;3001;42.622;23.194;2022-11-11T10:53:34;9.73;;;8.83;;
5951;SDS011;3001;42.622;23.194;2022-11-11T10:56:09;8.87;;;8.13;;
5951;SDS011;3001;42.622;23.194;2022-11-11T10:58:42;8.17;;;7.57;;
5951;SDS011;3001;42.622;23.194;2022-11-11T11:01:15;7.80;;;7.17;;
5951;SDS011;3001;42.622;23.194;2022-11-11T11:03:46;8.10;;;7.40;;
5951;SDS011;3001;42.622;23.194;2022-11-11T11:06:19;8.83;;;8.13;;
5951;SDS011;3001;42.622;23.194;2022-11-11T11:08:51;8.37;;;7.73;;
5951;SDS011;3001;42.622;23.194;2022-11-11T11:11:23;8.10;;;7.30;;
5951;SDS011;3001;42.622;23.194;2022-11-11T11:13:57;7.97;;;7.37;;
5951;SDS011;3001;42.622;23.194;2022-11-11T11:16:30;8.40;;;7.70;;
5951;SDS011;3001;42.622;23.194;2022-11-11T11:19:12;8.80;;;8.00;;
5951;SDS011;3001;42.622;23.194;2022-11-11T11:21:47;18.80;;;7.23;;
5951;SDS011;3001;42.622;23.194;2022-11-11T11:24:20;7.30;;;6.80;;
5951;SDS011;3001;42.622;23.194;2022-11-11T11:26:50;7.13;;;6.43;;
5951;SDS011;3001;42.622;23.194;2022-11-11T11:29:25;7.17;;;6.77;;
5951;SDS011;3001;42.622;23.194;2022-11-11T11:31:54;6.37;;;5.97;;
5951;SDS011;3001;42.622;23.194;2022-11-11T11:34:21;6.63;;;6.13;;
5951;SDS011;3001;42.622;23.194;2022-11-11T11:37:09;6.83;;;6.33;;
5951;SDS011;3001;42.622;23.194;2022-11-11T11:39:37;7.57;;;6.97;;
5951;SDS011;3001;42.622;23.194;2022-11-11T11:42:05;6.63;;;6.23;;
5951;SDS011;3001;42.622;23.194;2022-11-11T11:44:33;6.10;;;5.60;;
5951;SDS011;3001;42.622;23.194;2022-11-11T11:47:13;6.70;;;6.27;;
5951;SDS011;3001;42.622;23.194;2022-11-11T11:50:00;6.53;;;6.13;;
5951;SDS011;3001;42.622;23.194;2022-11-11T11:52:38;10.63;;;7.30;;
5951;SDS011;3001;42.622;23.194;2022-11-11T11:55:20;6.40;;;6.00;;
5951;SDS011;3001;42.622;23.194;2022-11-11T11:57:52;5.67;;;5.37;;
5951;SDS011;3001;42.622;23.194;2022-11-11T12:00:42;6.27;;;5.80;;
5951;SDS011;3001;42.622;23.194;2022-11-11T12:06:26;6.37;;;5.87;;
5951;SDS011;3001;42.622;23.194;2022-11-11T12:09:04;6.33;;;5.87;;
5951;SDS011;3001;42.622;23.194;2022-11-11T12:11:41;6.03;;;5.63;;
5951;SDS011;3001;42.622;23.194;2022-11-11T12:14:27;6.63;;;6.13;;
5951;SDS011;3001;42.622;23.194;2022-11-11T12:17:09;5.90;;;5.50;;
5951;SDS011;3001;42.622;23.194;2022-11-11T12:19:47;5.00;;;4.70;;
5951;SDS011;3001;42.622;23.194;2022-11-11T12:22:29;6.57;;;6.17;;
5951;SDS011;3001;42.622;23.194;2022-11-11T12:25:10;6.20;;;5.77;;
5951;SDS011;3001;42.622;23.194;2022-11-11T12:27:47;5.30;;;5.00;;
5951;SDS011;3001;42.622;23.194;2022-11-11T12:30:23;5.10;;;4.80;;
5951;SDS011;3001;42.622;23.194;2022-11-11T12:36:08;5.37;;;5.07;;
5951;SDS011;3001;42.622;23.194;2022-11-11T12:38:49;5.97;;;5.47;;
5951;SDS011;3001;42.622;23.194;2022-11-11T12:41:34;6.13;;;5.70;;
5951;SDS011;3001;42.622;23.194;2022-11-11T12:44:14;5.20;;;4.90;;
5951;SDS011;3001;42.622;23.194;2022-11-11T12:46:46;5.20;;;4.87;;
5951;SDS011;3001;42.622;23.194;2022-11-11T12:49:38;4.10;;;3.90;;
5951;SDS011;3001;42.622;23.194;2022-11-11T12:52:15;5.13;;;4.83;;
5951;SDS011;3001;42.622;23.194;2022-11-11T12:54:54;6.10;;;5.63;;
5951;SDS011;3001;42.622;23.194;2022-11-11T12:57:34;5.33;;;4.97;;
5951;SDS011;3001;42.622;23.194;2022-11-11T13:00:14;7.73;;;5.87;;
5951;SDS011;3001;42.622;23.194;2022-11-11T13:02:57;6.37;;;5.87;;
5951;SDS011;3001;42.622;23.194;2022-11-11T13:05:33;6.13;;;5.73;;
5951;SDS011;3001;42.622;23.194;2022-11-11T13:08:15;6.77;;;6.10;;
5951;SDS011;3001;42.622;23.194;2022-11-11T13:11:02;6.50;;;6.10;;
5951;SDS011;3001;42.622;23.194;2022-11-11T13:13:41;6.53;;;5.93;;
5951;SDS011;3001;42.622;23.194;2022-11-11T13:16:22;6.83;;;6.27;;
5951;SDS011;3001;42.622;23.194;2022-11-11T13:18:50;11.80;;;5.90;;
5951;SDS011;3001;42.622;23.194;2022-11-11T13:21:24;5.97;;;5.53;;
5951;SDS011;3001;42.622;23.194;2022-11-11T13:23:56;5.13;;;4.83;;
5951;SDS011;3001;42.622;23.194;2022-11-11T13:26:25;6.10;;;5.70;;
5951;SDS011;3001;42.622;23.194;2022-11-11T13:29:00;4.80;;;4.50;;
5951;SDS011;3001;42.622;23.194;2022-11-11T13:31:45;5.70;;;5.37;;
5951;SDS011;3001;42.622;23.194;2022-11-11T13:34:14;5.50;;;5.17;;
5951;SDS011;3001;42.622;23.194;2022-11-11T13:36:43;5.70;;;5.30;;
5951;SDS011;3001;42.622;23.194;2022-11-11T13:39:21;5.30;;;4.90;;
5951;SDS011;3001;42.622;23.194;2022-11-11T13:41:52;6.10;;;5.60;;
5951;SDS011;3001;42.622;23.194;2022-11-11T13:44:22;5.57;;;5.17;;
5951;SDS011;3001;42.622;23.194;2022-11-11T13:46:54;6.87;;;6.30;;
5951;SDS011;3001;42.622;23.194;2022-11-11T13:49:28;7.17;;;6.57;;
5951;SDS011;3001;42.622;23.194;2022-11-11T13:52:00;7.03;;;6.40;;
5951;SDS011;3001;42.622;23.194;2022-11-11T13:54:30;5.93;;;5.53;;
5951;SDS011;3001;42.622;23.194;2022-11-11T13:57:00;6.63;;;6.10;;
5951;SDS011;3001;42.622;23.194;2022-11-11T13:59:31;8.23;;;6.23;;
5951;SDS011;3001;42.622;23.194;2022-11-11T14:05:18;8.00;;;7.33;;
5951;SDS011;3001;42.622;23.194;2022-11-11T14:07:47;5.87;;;5.47;;
5951;SDS011;3001;42.622;23.194;2022-11-11T14:13:34;7.97;;;6.40;;
5951;SDS011;3001;42.622;23.194;2022-11-11T14:16:03;6.37;;;5.70;;
5951;SDS011;3001;42.622;23.194;2022-11-11T14:18:38;6.13;;;5.63;;
5951;SDS011;3001;42.622;23.194;2022-11-11T14:21:06;6.27;;;5.73;;
5951;SDS011;3001;42.622;23.194;2022-11-11T14:23:34;6.60;;;5.87;;
5951;SDS011;3001;42.622;23.194;2022-11-11T14:28:57;5.40;;;5.00;;
5951;SDS011;3001;42.622;23.194;2022-11-11T14:37:28;9.27;;;8.37;;
5951;SDS011;3001;42.622;23.194;2022-11-11T14:40:09;10.03;;;9.03;;
5951;SDS011;3001;42.622;23.194;2022-11-11T14:42:44;9.00;;;8.10;;
5951;SDS011;3001;42.622;23.194;2022-11-11T14:51:41;8.83;;;7.70;;
5951;SDS011;3001;42.622;23.194;2022-11-11T14:54:16;11.13;;;9.10;;
5951;SDS011;3001;42.622;23.194;2022-11-11T14:56:52;10.50;;;9.40;;
5951;SDS011;3001;42.622;23.194;2022-11-11T14:59:22;10.17;;;9.17;;
5951;SDS011;3001;42.622;23.194;2022-11-11T15:01:52;10.77;;;9.63;;
5951;SDS011;3001;42.622;23.194;2022-11-11T15:04:20;15.53;;;10.70;;
5951;SDS011;3001;42.622;23.194;2022-11-11T15:06:49;14.27;;;10.83;;
5951;SDS011;3001;42.622;23.194;2022-11-11T15:09:29;10.83;;;9.30;;
5951;SDS011;3001;42.622;23.194;2022-11-11T15:12:12;9.17;;;8.23;;
5951;SDS011;3001;42.622;23.194;2022-11-11T15:14:49;11.43;;;9.77;;
5951;SDS011;3001;42.622;23.194;2022-11-11T15:17:27;11.23;;;9.27;;
5951;SDS011;3001;42.622;23.194;2022-11-11T15:20:11;11.50;;;8.87;;
5951;SDS011;3001;42.622;23.194;2022-11-11T15:22:53;14.57;;;10.70;;
5951;SDS011;3001;42.622;23.194;2022-11-11T15:25:29;17.50;;;11.47;;
5951;SDS011;3001;42.622;23.194;2022-11-11T15:28:04;17.23;;;12.30;;
5951;SDS011;3001;42.622;23.194;2022-11-11T15:30:55;17.03;;;12.60;;
5951;SDS011;3001;42.622;23.194;2022-11-11T15:33:34;15.93;;;11.97;;
5951;SDS011;3001;42.622;23.194;2022-11-11T15:36:09;16.67;;;12.57;;
5951;SDS011;3001;42.622;23.194;2022-11-11T15:38:44;17.33;;;12.13;;